sensor_id;sensor_type;location;lat;lon;timestamp;pressure;altitude;pressure_sealevel;temperature;humidity
40850;BME280;26571;41.610;25.380;2022-12-18T00:00:42;98846.91;;;13.99;100.00
40850;BME280;26571;41.610;25.380;2022-12-18T00:03:08;98841.09;;;14.04;100.00
40850;BME280;26571;41.610;25.380;2022-12-18T00:05:34;98848.72;;;13.99;100.00
40850;BME280;26571;41.610;25.380;2022-12-18T00:08:00;98859.53;;;14.12;100.00
40850;BME280;26571;41.610;25.380;2022-12-18T00:10:27;98863.31;;;13.94;100.00
40850;BME280;26571;41.610;25.380;2022-12-18T00:12:52;98873.84;;;13.80;100.00
40850;BME280;26571;41.610;25.380;2022-12-18T00:15:18;98838.78;;;13.55;100.00
40850;BME280;26571;41.610;25.380;2022-12-18T00:17:43;98882.25;;;13.83;100.00
40850;BME280;26571;41.610;25.380;2022-12-18T00:20:09;98879.13;;;13.80;100.00
40850;BME280;26571;41.610;25.380;2022-12-18T00:22:35;98879.84;;;13.96;100.00
40850;BME280;26571;41.610;25.380;2022-12-18T00:25:00;98876.38;;;13.96;100.00
40850;BME280;26571;41.610;25.380;2022-12-18T00:27:25;98884.84;;;13.91;100.00
40850;BME280;26571;41.610;25.380;2022-12-18T00:29:51;98891.81;;;13.92;100.00
40850;BME280;26571;41.610;25.380;2022-12-18T00:32:16;98890.03;;;14.08;100.00
40850;BME280;26571;41.610;25.380;2022-12-18T00:34:42;98897.19;;;13.99;100.00
40850;BME280;26571;41.610;25.380;2022-12-18T00:37:07;98908.03;;;13.89;100.00
40850;BME280;26571;41.610;25.380;2022-12-18T00:39:32;98916.78;;;13.90;100.00
40850;BME280;26571;41.610;25.380;2022-12-18T00:41:58;98929.44;;;14.03;100.00
40850;BME280;26571;41.610;25.380;2022-12-18T00:44:42;98934.75;;;14.03;100.00
40850;BME280;26571;41.610;25.380;2022-12-18T00:47:07;98917.34;;;13.77;100.00
40850;BME280;26571;41.610;25.380;2022-12-18T00:49:33;98938.38;;;14.02;100.00
40850;BME280;26571;41.610;25.380;2022-12-18T00:51:58;98942.31;;;14.06;100.00
40850;BME280;26571;41.610;25.380;2022-12-18T00:54:23;98939.19;;;14.02;100.00
40850;BME280;26571;41.610;25.380;2022-12-18T00:56:49;98924.72;;;13.90;100.00
40850;BME280;26571;41.610;25.380;2022-12-18T00:59:15;98935.78;;;13.93;100.00
40850;BME280;26571;41.610;25.380;2022-12-18T01:01:41;98947.59;;;14.06;100.00
40850;BME280;26571;41.610;25.380;2022-12-18T01:04:06;98940.72;;;13.96;100.00
40850;BME280;26571;41.610;25.380;2022-12-18T01:06:31;98934.59;;;13.96;100.00
40850;BME280;26571;41.610;25.380;2022-12-18T01:08:57;98941.44;;;14.13;100.00
40850;BME280;26571;41.610;25.380;2022-12-18T01:11:23;98929.66;;;14.16;100.00
40850;BME280;26571;41.610;25.380;2022-12-18T01:13:49;98903.13;;;13.78;100.00
40850;BME280;26571;41.610;25.380;2022-12-18T01:16:16;98944.47;;;14.02;100.00
40850;BME280;26571;41.610;25.380;2022-12-18T01:18:42;98947.44;;;14.07;100.00
40850;BME280;26571;41.610;25.380;2022-12-18T01:21:08;98936.50;;;14.10;100.00
40850;BME280;26571;41.610;25.380;2022-12-18T01:23:34;98932.97;;;14.18;100.00
40850;BME280;26571;41.610;25.380;2022-12-18T01:26:11;98938.03;;;14.05;100.00
40850;BME280;26571;41.610;25.380;2022-12-18T01:28:38;98936.38;;;14.04;100.00
40850;BME280;26571;41.610;25.380;2022-12-18T01:31:31;98942.28;;;14.14;100.00
40850;BME280;26571;41.610;25.380;2022-12-18T01:33:57;98937.19;;;14.04;100.00
40850;BME280;26571;41.610;25.380;2022-12-18T01:36:25;98940.63;;;14.13;100.00
40850;BME280;26571;41.610;25.380;2022-12-18T01:38:51;98935.53;;;14.26;100.00
40850;BME280;26571;41.610;25.380;2022-12-18T01:41:20;98935.53;;;14.26;100.00
40850;BME280;26571;41.610;25.380;2022-12-18T01:43:52;98925.84;;;13.95;100.00
40850;BME280;26571;41.610;25.380;2022-12-18T01:46:21;98941.59;;;13.89;100.00
40850;BME280;26571;41.610;25.380;2022-12-18T01:48:52;98935.19;;;13.83;100.00
40850;BME280;26571;41.610;25.380;2022-12-18T01:51:18;98920.19;;;13.76;100.00
40850;BME280;26571;41.610;25.380;2022-12-18T01:53:45;98934.78;;;13.94;100.00
40850;BME280;26571;41.610;25.380;2022-12-18T01:56:15;98948.84;;;13.95;100.00
40850;BME280;26571;41.610;25.380;2022-12-18T01:59:03;98946.38;;;13.93;100.00
40850;BME280;26571;41.610;25.380;2022-12-18T02:01:30;98913.94;;;13.68;100.00
40850;BME280;26571;41.610;25.380;2022-12-18T02:03:56;98955.63;;;13.98;100.00
40850;BME280;26571;41.610;25.380;2022-12-18T02:06:41;98944.72;;;13.92;100.00
40850;BME280;26571;41.610;25.380;2022-12-18T02:09:12;98950.19;;;13.91;100.00
40850;BME280;26571;41.610;25.380;2022-12-18T02:17:23;98961.72;;;13.67;100.00
40850;BME280;26571;41.610;25.380;2022-12-18T02:20:09;98960.56;;;13.69;100.00
40850;BME280;26571;41.610;25.380;2022-12-18T02:28:08;98975.31;;;13.64;100.00
40850;BME280;26571;41.610;25.380;2022-12-18T02:30:37;98964.63;;;13.80;100.00
40850;BME280;26571;41.610;25.380;2022-12-18T02:33:07;98973.91;;;13.76;100.00
40850;BME280;26571;41.610;25.380;2022-12-18T02:35:34;98970.56;;;13.82;100.00
40850;BME280;26571;41.610;25.380;2022-12-18T02:38:03;98967.88;;;13.90;100.00
40850;BME280;26571;41.610;25.380;2022-12-18T02:40:30;98974.16;;;13.98;100.00
40850;BME280;26571;41.610;25.380;2022-12-18T02:42:55;98966.88;;;13.91;100.00
40850;BME280;26571;41.610;25.380;2022-12-18T02:45:27;98983.78;;;13.90;100.00
40850;BME280;26571;41.610;25.380;2022-12-18T02:47:52;98970.31;;;13.69;100.00
40850;BME280;26571;41.610;25.380;2022-12-18T02:50:34;98982.22;;;13.73;100.00
40850;BME280;26571;41.610;25.380;2022-12-18T02:58:14;98973.63;;;13.71;100.00
40850;BME280;26571;41.610;25.380;2022-12-18T03:00:48;98982.56;;;13.70;100.00
40850;BME280;26571;41.610;25.380;2022-12-18T03:03:24;98985.84;;;13.72;100.00
40850;BME280;26571;41.610;25.380;2022-12-18T03:05:55;98991.44;;;13.77;100.00
40850;BME280;26571;41.610;25.380;2022-12-18T03:08:26;98995.06;;;13.84;100.00
40850;BME280;26571;41.610;25.380;2022-12-18T03:11:00;98992.94;;;13.80;100.00
40850;BME280;26571;41.610;25.380;2022-12-18T03:13:36;99001.38;;;13.75;100.00
40850;BME280;26571;41.610;25.380;2022-12-18T03:16:05;98981.91;;;13.68;100.00
40850;BME280;26571;41.610;25.380;2022-12-18T03:18:33;99009.28;;;13.83;100.00
40850;BME280;26571;41.610;25.380;2022-12-18T03:21:00;99006.47;;;13.85;100.00
40850;BME280;26571;41.610;25.380;2022-12-18T03:23:33;99012.44;;;13.79;100.00
40850;BME280;26571;41.610;25.380;2022-12-18T03:26:07;99005.53;;;13.78;100.00
40850;BME280;26571;41.610;25.380;2022-12-18T03:28:42;98988.06;;;13.60;100.00
40850;BME280;26571;41.610;25.380;2022-12-18T03:31:11;99024.16;;;13.84;100.00
40850;BME280;26571;41.610;25.380;2022-12-18T03:33:45;99017.75;;;13.79;100.00
40850;BME280;26571;41.610;25.380;2022-12-18T03:36:12;99022.56;;;13.75;100.00
40850;BME280;26571;41.610;25.380;2022-12-18T03:38:37;99026.84;;;13.76;100.00
40850;BME280;26571;41.610;25.380;2022-12-18T03:43:55;99025.38;;;14.05;100.00
40850;BME280;26571;41.610;25.380;2022-12-18T03:46:33;99033.03;;;14.00;99.22
40850;BME280;26571;41.610;25.380;2022-12-18T03:49:56;99032.09;;;13.92;98.98
40850;BME280;26571;41.610;25.380;2022-12-18T03:52:36;99033.44;;;13.80;99.61
40850;BME280;26571;41.610;25.380;2022-12-18T03:55:03;99042.50;;;13.86;99.12
40850;BME280;26571;41.610;25.380;2022-12-18T03:57:32;99039.03;;;13.85;100.00
40850;BME280;26571;41.610;25.380;2022-12-18T04:00:08;99036.56;;;13.84;99.83
40850;BME280;26571;41.610;25.380;2022-12-18T04:02:36;99045.31;;;13.92;98.59
40850;BME280;26571;41.610;25.380;2022-12-18T04:05:04;99045.97;;;13.86;100.00
40850;BME280;26571;41.610;25.380;2022-12-18T04:07:32;99051.75;;;13.98;98.39
40850;BME280;26571;41.610;25.380;2022-12-18T04:09:59;99053.47;;;13.83;100.00
40850;BME280;26571;41.610;25.380;2022-12-18T04:12:29;99054.94;;;13.77;100.00
40850;BME280;26571;41.610;25.380;2022-12-18T04:14:54;99049.13;;;13.82;100.00
40850;BME280;26571;41.610;25.380;2022-12-18T04:17:20;99040.94;;;13.68;100.00
40850;BME280;26571;41.610;25.380;2022-12-18T04:19:46;99058.75;;;13.83;100.00
40850;BME280;26571;41.610;25.380;2022-12-18T04:22:12;99055.63;;;13.79;100.00
40850;BME280;26571;41.610;25.380;2022-12-18T04:24:37;99057.91;;;13.82;100.00
40850;BME280;26571;41.610;25.380;2022-12-18T04:27:03;99069.16;;;13.84;100.00
40850;BME280;26571;41.610;25.380;2022-12-18T04:29:29;99066.84;;;13.81;100.00
40850;BME280;26571;41.610;25.380;2022-12-18T04:31:54;99068.88;;;13.71;100.00
40850;BME280;26571;41.610;25.380;2022-12-18T04:34:21;99072.50;;;13.70;100.00
40850;BME280;26571;41.610;25.380;2022-12-18T04:36:46;99071.13;;;13.82;100.00
40850;BME280;26571;41.610;25.380;2022-12-18T04:39:12;99065.91;;;13.66;100.00
40850;BME280;26571;41.610;25.380;2022-12-18T04:41:37;99075.97;;;13.79;100.00
40850;BME280;26571;41.610;25.380;2022-12-18T04:44:03;99073.13;;;13.88;100.00
40850;BME280;26571;41.610;25.380;2022-12-18T04:46:29;99054.09;;;13.85;99.60
40850;BME280;26571;41.610;25.380;2022-12-18T04:48:55;99093.91;;;14.00;99.56
40850;BME280;26571;41.610;25.380;2022-12-18T04:51:20;99091.91;;;14.02;99.40
40850;BME280;26571;41.610;25.380;2022-12-18T04:53:46;99097.34;;;14.08;98.40
40850;BME280;26571;41.610;25.380;2022-12-18T04:56:13;99086.16;;;13.98;99.73
40850;BME280;26571;41.610;25.380;2022-12-18T04:58:41;99092.47;;;13.89;100.00
40850;BME280;26571;41.610;25.380;2022-12-18T05:01:07;99093.16;;;13.83;100.00
40850;BME280;26571;41.610;25.380;2022-12-18T05:03:33;99094.81;;;13.84;100.00
40850;BME280;26571;41.610;25.380;2022-12-18T05:05:59;99102.22;;;13.88;100.00
40850;BME280;26571;41.610;25.380;2022-12-18T05:08:25;99098.28;;;13.84;100.00
40850;BME280;26571;41.610;25.380;2022-12-18T05:11:07;99099.44;;;13.82;100.00
40850;BME280;26571;41.610;25.380;2022-12-18T05:13:33;99109.81;;;13.91;99.61
40850;BME280;26571;41.610;25.380;2022-12-18T05:15:59;99094.63;;;13.77;100.00
40850;BME280;26571;41.610;25.380;2022-12-18T05:18:25;99109.81;;;13.91;99.94
40850;BME280;26571;41.610;25.380;2022-12-18T05:20:52;99101.31;;;13.65;100.00
40850;BME280;26571;41.610;25.380;2022-12-18T05:23:18;99115.59;;;13.95;100.00
40850;BME280;26571;41.610;25.380;2022-12-18T05:25:52;99120.44;;;13.83;100.00
40850;BME280;26571;41.610;25.380;2022-12-18T05:28:18;99123.94;;;13.76;100.00
40850;BME280;26571;41.610;25.380;2022-12-18T05:30:55;99127.72;;;13.81;100.00
40850;BME280;26571;41.610;25.380;2022-12-18T05:33:22;99138.28;;;13.81;100.00
40850;BME280;26571;41.610;25.380;2022-12-18T05:35:59;99135.50;;;13.83;100.00
40850;BME280;26571;41.610;25.380;2022-12-18T05:38:26;99133.81;;;13.98;100.00
40850;BME280;26571;41.610;25.380;2022-12-18T05:40:53;99139.28;;;13.88;100.00
40850;BME280;26571;41.610;25.380;2022-12-18T05:43:22;99140.97;;;13.73;100.00
40850;BME280;26571;41.610;25.380;2022-12-18T05:45:48;99144.59;;;13.72;100.00
40850;BME280;26571;41.610;25.380;2022-12-18T05:48:14;99152.84;;;13.93;100.00
40850;BME280;26571;41.610;25.380;2022-12-18T05:50:41;99146.53;;;13.94;100.00
40850;BME280;26571;41.610;25.380;2022-12-18T05:53:07;99154.19;;;13.81;100.00
40850;BME280;26571;41.610;25.380;2022-12-18T05:55:37;99122.16;;;13.68;100.00
40850;BME280;26571;41.610;25.380;2022-12-18T05:58:05;99152.66;;;13.87;100.00
40850;BME280;26571;41.610;25.380;2022-12-18T06:00:32;99128.06;;;13.78;100.00
40850;BME280;26571;41.610;25.380;2022-12-18T06:02:58;99158.75;;;14.04;100.00
40850;BME280;26571;41.610;25.380;2022-12-18T06:05:25;99173.63;;;14.05;98.32
40850;BME280;26571;41.610;25.380;2022-12-18T06:07:50;99174.47;;;14.05;98.47
40850;BME280;26571;41.610;25.380;2022-12-18T06:10:16;99177.25;;;14.12;96.52
40850;BME280;26571;41.610;25.380;2022-12-18T06:12:41;99181.38;;;14.14;95.47
40850;BME280;26571;41.610;25.380;2022-12-18T06:15:07;99185.88;;;14.14;94.51
40850;BME280;26571;41.610;25.380;2022-12-18T06:17:33;99185.88;;;14.14;93.67
40850;BME280;26571;41.610;25.380;2022-12-18T06:19:59;99191.81;;;14.16;93.51
40850;BME280;26571;41.610;25.380;2022-12-18T06:22:25;99182.75;;;14.02;96.23
40850;BME280;26571;41.610;25.380;2022-12-18T06:24:51;99200.63;;;14.00;97.48
40850;BME280;26571;41.610;25.380;2022-12-18T06:27:16;99206.25;;;13.97;96.83
40850;BME280;26571;41.610;25.380;2022-12-18T06:29:42;99205.59;;;13.95;97.90
40850;BME280;26571;41.610;25.380;2022-12-18T06:32:08;99197.50;;;13.88;98.10
40850;BME280;26571;41.610;25.380;2022-12-18T06:34:33;99167.59;;;13.71;97.84
40850;BME280;26571;41.610;25.380;2022-12-18T06:36:59;99212.91;;;13.93;98.89
40850;BME280;26571;41.610;25.380;2022-12-18T06:39:27;99213.69;;;14.02;98.15
40850;BME280;26571;41.610;25.380;2022-12-18T06:41:52;99218.84;;;13.95;98.46
40850;BME280;26571;41.610;25.380;2022-12-18T06:44:17;99224.13;;;13.95;98.26
40850;BME280;26571;41.610;25.380;2022-12-18T06:46:43;99234.53;;;13.96;96.47
40850;BME280;26571;41.610;25.380;2022-12-18T06:49:08;99225.78;;;14.04;93.53
40850;BME280;26571;41.610;25.380;2022-12-18T06:51:35;99229.06;;;14.06;93.83
40850;BME280;26571;41.610;25.380;2022-12-18T06:54:00;99236.50;;;14.19;93.21
40850;BME280;26571;41.610;25.380;2022-12-18T06:56:26;99245.56;;;14.25;90.23
40850;BME280;26571;41.610;25.380;2022-12-18T06:58:51;99254.88;;;14.12;92.84
40850;BME280;26571;41.610;25.380;2022-12-18T07:01:17;99263.00;;;14.03;95.04
40850;BME280;26571;41.610;25.380;2022-12-18T07:03:42;99254.06;;;14.04;96.01
40850;BME280;26571;41.610;25.380;2022-12-18T07:06:16;99261.66;;;14.07;95.24
40850;BME280;26571;41.610;25.380;2022-12-18T07:08:41;99261.47;;;14.25;92.17
40850;BME280;26571;41.610;25.380;2022-12-18T07:11:07;99272.06;;;14.33;91.17
40850;BME280;26571;41.610;25.380;2022-12-18T07:13:32;99267.91;;;14.22;92.98
40850;BME280;26571;41.610;25.380;2022-12-18T07:18:30;99278.19;;;14.25;92.18
40850;BME280;26571;41.610;25.380;2022-12-18T07:20:55;99275.19;;;14.28;92.11
40850;BME280;26571;41.610;25.380;2022-12-18T07:23:21;99278.31;;;14.32;91.19
40850;BME280;26571;41.610;25.380;2022-12-18T07:25:46;99270.56;;;14.30;91.28
40850;BME280;26571;41.610;25.380;2022-12-18T07:28:11;99271.09;;;14.17;92.44
40850;BME280;26571;41.610;25.380;2022-12-18T07:30:38;99275.75;;;14.07;94.72
40850;BME280;26571;41.610;25.380;2022-12-18T07:33:03;99290.78;;;14.15;94.92
40850;BME280;26571;41.610;25.380;2022-12-18T07:35:29;99298.03;;;14.21;94.58
40850;BME280;26571;41.610;25.380;2022-12-18T07:37:54;99289.09;;;14.22;95.42
40850;BME280;26571;41.610;25.380;2022-12-18T07:40:19;99289.13;;;14.14;94.94
40850;BME280;26571;41.610;25.380;2022-12-18T07:42:45;99302.38;;;14.14;95.31
40850;BME280;26571;41.610;25.380;2022-12-18T07:45:10;99305.69;;;14.08;95.94
40850;BME280;26571;41.610;25.380;2022-12-18T07:47:37;99300.53;;;14.06;96.57
40850;BME280;26571;41.610;25.380;2022-12-18T07:50:04;99316.59;;;13.96;97.44
40850;BME280;26571;41.610;25.380;2022-12-18T07:52:29;99310.34;;;13.98;96.81
40850;BME280;26571;41.610;25.380;2022-12-18T07:54:55;99314.63;;;13.99;98.11
40850;BME280;26571;41.610;25.380;2022-12-18T07:57:20;99316.28;;;14.00;96.84
40850;BME280;26571;41.610;25.380;2022-12-18T07:59:46;99319.25;;;13.96;97.96
40850;BME280;26571;41.610;25.380;2022-12-18T08:02:11;99321.56;;;13.91;98.78
40850;BME280;26571;41.610;25.380;2022-12-18T08:04:37;99326.88;;;14.00;98.13
40850;BME280;26571;41.610;25.380;2022-12-18T08:07:02;99342.75;;;14.00;99.17
40850;BME280;26571;41.610;25.380;2022-12-18T08:09:28;99343.22;;;13.87;99.68
40850;BME280;26571;41.610;25.380;2022-12-18T08:11:53;99335.63;;;13.76;100.00
40850;BME280;26571;41.610;25.380;2022-12-18T08:14:19;99336.31;;;13.78;100.00
40850;BME280;26571;41.610;25.380;2022-12-18T08:16:44;99335.63;;;13.76;100.00
40850;BME280;26571;41.610;25.380;2022-12-18T08:19:10;99305.81;;;13.33;100.00
40850;BME280;26571;41.610;25.380;2022-12-18T08:21:35;99347.63;;;13.37;100.00
40850;BME280;26571;41.610;25.380;2022-12-18T08:24:01;99342.50;;;13.28;100.00
40850;BME280;26571;41.610;25.380;2022-12-18T08:26:28;99350.28;;;13.29;100.00
40850;BME280;26571;41.610;25.380;2022-12-18T08:28:55;99350.97;;;13.39;100.00
40850;BME280;26571;41.610;25.380;2022-12-18T08:31:21;99353.25;;;13.42;100.00
40850;BME280;26571;41.610;25.380;2022-12-18T08:33:51;99351.94;;;13.38;100.00
40850;BME280;26571;41.610;25.380;2022-12-18T08:36:17;99284.25;;;12.61;100.00
40850;BME280;26571;41.610;25.380;2022-12-18T08:38:43;99364.06;;;13.15;100.00
40850;BME280;26571;41.610;25.380;2022-12-18T08:41:11;99328.28;;;12.86;100.00
40850;BME280;26571;41.610;25.380;2022-12-18T08:43:37;99361.25;;;13.16;100.00
40850;BME280;26571;41.610;25.380;2022-12-18T08:46:21;99364.03;;;13.07;100.00
40850;BME280;26571;41.610;25.380;2022-12-18T08:48:50;99361.81;;;12.86;100.00
40850;BME280;26571;41.610;25.380;2022-12-18T08:51:16;99327.88;;;12.39;100.00
40850;BME280;26571;41.610;25.380;2022-12-18T08:53:42;99360.22;;;12.67;100.00
40850;BME280;26571;41.610;25.380;2022-12-18T08:56:09;99367.59;;;12.55;100.00
40850;BME280;26571;41.610;25.380;2022-12-18T08:58:35;99361.69;;;12.35;100.00
40850;BME280;26571;41.610;25.380;2022-12-18T09:01:05;99358.22;;;12.17;100.00
40850;BME280;26571;41.610;25.380;2022-12-18T09:03:31;99360.84;;;12.09;100.00
40850;BME280;26571;41.610;25.380;2022-12-18T09:05:56;99322.47;;;11.79;100.00
40850;BME280;26571;41.610;25.380;2022-12-18T09:08:22;99361.28;;;12.04;100.00
40850;BME280;26571;41.610;25.380;2022-12-18T09:10:49;99365.28;;;12.08;100.00
40850;BME280;26571;41.610;25.380;2022-12-18T09:13:15;99362.69;;;11.81;100.00
40850;BME280;26571;41.610;25.380;2022-12-18T09:15:42;99375.88;;;11.63;100.00
40850;BME280;26571;41.610;25.380;2022-12-18T09:18:09;99351.22;;;11.36;100.00
40850;BME280;26571;41.610;25.380;2022-12-18T09:20:36;99366.94;;;11.28;100.00
40850;BME280;26571;41.610;25.380;2022-12-18T09:23:02;99365.94;;;11.11;100.00
40850;BME280;26571;41.610;25.380;2022-12-18T09:25:29;99364.31;;;11.01;100.00
40850;BME280;26571;41.610;25.380;2022-12-18T09:28:10;99368.63;;;11.02;100.00
40850;BME280;26571;41.610;25.380;2022-12-18T09:30:41;99369.75;;;10.99;100.00
40850;BME280;26571;41.610;25.380;2022-12-18T09:33:07;99376.78;;;10.99;100.00
40850;BME280;26571;41.610;25.380;2022-12-18T09:35:32;99374.75;;;10.93;100.00
40850;BME280;26571;41.610;25.380;2022-12-18T09:37:58;99371.31;;;10.82;100.00
40850;BME280;26571;41.610;25.380;2022-12-18T09:40:25;99373.50;;;10.97;100.00
40850;BME280;26571;41.610;25.380;2022-12-18T09:42:55;99375.69;;;11.01;100.00
40850;BME280;26571;41.610;25.380;2022-12-18T09:45:23;99374.97;;;11.09;100.00
40850;BME280;26571;41.610;25.380;2022-12-18T09:47:51;99381.91;;;11.10;100.00
40850;BME280;26571;41.610;25.380;2022-12-18T09:50:36;99361.88;;;10.90;100.00
40850;BME280;26571;41.610;25.380;2022-12-18T09:53:07;99372.63;;;11.06;100.00
40850;BME280;26571;41.610;25.380;2022-12-18T09:55:40;99374.97;;;11.09;100.00
40850;BME280;26571;41.610;25.380;2022-12-18T09:58:15;99379.06;;;11.21;100.00
40850;BME280;26571;41.610;25.380;2022-12-18T10:00:41;99380.53;;;11.06;100.00
40850;BME280;26571;41.610;25.380;2022-12-18T10:03:11;99377.16;;;10.86;100.00
40850;BME280;26571;41.610;25.380;2022-12-18T10:08:22;99372.84;;;10.85;100.00
40850;BME280;26571;41.610;25.380;2022-12-18T10:10:52;99341.88;;;10.69;100.00
40850;BME280;26571;41.610;25.380;2022-12-18T10:13:37;99391.34;;;11.03;100.00
40850;BME280;26571;41.610;25.380;2022-12-18T10:16:23;99387.00;;;11.11;100.00
40850;BME280;26571;41.610;25.380;2022-12-18T10:21:26;99385.00;;;11.23;100.00
40850;BME280;26571;41.610;25.380;2022-12-18T10:24:19;99384.44;;;11.29;100.00
40850;BME280;26571;41.610;25.380;2022-12-18T10:26:47;99334.91;;;11.05;100.00
40850;BME280;26571;41.610;25.380;2022-12-18T10:29:14;99427.72;;;11.27;100.00
40850;BME280;26571;41.610;25.380;2022-12-18T10:31:40;99364.63;;;11.25;99.24
40850;BME280;26571;41.610;25.380;2022-12-18T10:34:15;99377.59;;;11.36;99.52
40850;BME280;26571;41.610;25.380;2022-12-18T10:36:41;99380.75;;;11.40;99.43
40850;BME280;26571;41.610;25.380;2022-12-18T10:39:20;99393.94;;;11.12;98.89
40850;BME280;26571;41.610;25.380;2022-12-18T10:41:50;99367.78;;;10.64;100.00
40850;BME280;26571;41.610;25.380;2022-12-18T10:44:22;99397.41;;;10.76;100.00
40850;BME280;26571;41.610;25.380;2022-12-18T10:46:54;99352.97;;;10.63;100.00
40850;BME280;26571;41.610;25.380;2022-12-18T10:49:28;99387.69;;;10.86;100.00
40850;BME280;26571;41.610;25.380;2022-12-18T10:52:19;99401.22;;;11.01;100.00
40850;BME280;26571;41.610;25.380;2022-12-18T10:54:48;99399.84;;;10.97;99.93
40850;BME280;26571;41.610;25.380;2022-12-18T10:57:29;99404.97;;;10.88;100.00
40850;BME280;26571;41.610;25.380;2022-12-18T10:59:57;99409.84;;;10.83;99.88
40850;BME280;26571;41.610;25.380;2022-12-18T11:02:27;99417.66;;;10.75;100.00
40850;BME280;26571;41.610;25.380;2022-12-18T11:04:53;99416.41;;;10.79;100.00
40850;BME280;26571;41.610;25.380;2022-12-18T11:07:18;99415.84;;;10.85;100.00
40850;BME280;26571;41.610;25.380;2022-12-18T11:09:59;99417.28;;;10.98;100.00
40850;BME280;26571;41.610;25.380;2022-12-18T11:12:28;99417.75;;;11.21;100.00
40850;BME280;26571;41.610;25.380;2022-12-18T11:14:55;99427.38;;;11.39;99.60
40850;BME280;26571;41.610;25.380;2022-12-18T11:17:32;99424.81;;;11.48;100.00
40850;BME280;26571;41.610;25.380;2022-12-18T11:20:02;99421.94;;;11.69;98.49
40850;BME280;26571;41.610;25.380;2022-12-18T11:22:30;99412.59;;;11.74;98.63
40850;BME280;26571;41.610;25.380;2022-12-18T11:27:38;99426.81;;;11.91;96.05
40850;BME280;26571;41.610;25.380;2022-12-18T11:33:03;99435.78;;;12.16;93.34
40850;BME280;26571;41.610;25.380;2022-12-18T11:35:55;99439.41;;;12.15;94.30
40850;BME280;26571;41.610;25.380;2022-12-18T11:38:40;99434.41;;;12.12;92.93
40850;BME280;26571;41.610;25.380;2022-12-18T11:41:15;99435.78;;;12.16;92.80
40850;BME280;26571;41.610;25.380;2022-12-18T11:44:04;99430.50;;;12.16;91.65
40850;BME280;26571;41.610;25.380;2022-12-18T11:46:33;99422.94;;;12.21;91.77
40850;BME280;26571;41.610;25.380;2022-12-18T11:51:36;99427.31;;;12.30;91.23
40850;BME280;26571;41.610;25.380;2022-12-18T11:54:12;99399.19;;;12.21;90.28
40850;BME280;26571;41.610;25.380;2022-12-18T11:56:53;99432.59;;;12.48;89.44
40850;BME280;26571;41.610;25.380;2022-12-18T12:07:45;99441.06;;;12.60;89.05
40850;BME280;26571;41.610;25.380;2022-12-18T12:21:01;99449.38;;;12.47;87.96
40850;BME280;26571;41.610;25.380;2022-12-18T12:23:37;99447.34;;;12.59;88.71
40850;BME280;26571;41.610;25.380;2022-12-18T12:26:08;99453.75;;;12.56;88.10
40850;BME280;26571;41.610;25.380;2022-12-18T12:28:50;99442.66;;;12.53;87.90
40850;BME280;26571;41.610;25.380;2022-12-18T12:39:29;99461.22;;;12.61;88.03
40850;BME280;26571;41.610;25.380;2022-12-18T12:41:56;99467.88;;;12.65;88.86
40850;BME280;26571;41.610;25.380;2022-12-18T12:44:53;99458.94;;;12.66;88.88
40850;BME280;26571;41.610;25.380;2022-12-18T12:47:25;99465.22;;;12.65;88.00
40850;BME280;26571;41.610;25.380;2022-12-18T12:49:52;99467.88;;;12.65;90.42
40850;BME280;26571;41.610;25.380;2022-12-18T12:52:34;99473.22;;;12.55;91.75
40850;BME280;26571;41.610;25.380;2022-12-18T12:55:02;99440.88;;;12.35;90.28
40850;BME280;26571;41.610;25.380;2022-12-18T12:57:58;99477.97;;;12.52;93.34
40850;BME280;26571;41.610;25.380;2022-12-18T13:00:29;99472.34;;;12.47;91.30
40850;BME280;26571;41.610;25.380;2022-12-18T13:03:24;99489.44;;;12.60;91.64
40850;BME280;26571;41.610;25.380;2022-12-18T13:06:04;99435.16;;;12.22;94.34
40850;BME280;26571;41.610;25.380;2022-12-18T13:08:55;99474.22;;;12.36;94.53
40850;BME280;26571;41.610;25.380;2022-12-18T13:11:37;99498.13;;;12.53;93.58
40850;BME280;26571;41.610;25.380;2022-12-18T13:14:33;99496.03;;;12.56;93.65
40850;BME280;26571;41.610;25.380;2022-12-18T13:20:06;99509.91;;;12.58;93.72
40850;BME280;26571;41.610;25.380;2022-12-18T13:22:43;99488.03;;;12.48;93.00
40850;BME280;26571;41.610;25.380;2022-12-18T13:27:59;99519.19;;;12.45;94.82
40850;BME280;26571;41.610;25.380;2022-12-18T13:38:36;99526.50;;;12.51;96.00
40850;BME280;26571;41.610;25.380;2022-12-18T13:46:05;99523.03;;;12.50;96.05
40850;BME280;26571;41.610;25.380;2022-12-18T13:48:34;99539.34;;;12.46;97.33
40850;BME280;26571;41.610;25.380;2022-12-18T13:51:06;99534.22;;;12.44;96.64
40850;BME280;26571;41.610;25.380;2022-12-18T13:53:39;99533.03;;;12.38;98.40
40850;BME280;26571;41.610;25.380;2022-12-18T13:56:07;99532.69;;;12.41;97.23
40850;BME280;26571;41.610;25.380;2022-12-18T13:58:33;99525.00;;;12.30;98.19
40850;BME280;26571;41.610;25.380;2022-12-18T14:00:58;99536.50;;;12.39;97.66
40850;BME280;26571;41.610;25.380;2022-12-18T14:03:27;99542.22;;;12.34;97.87
40850;BME280;26571;41.610;25.380;2022-12-18T14:06:02;99537.31;;;12.39;97.92
40850;BME280;26571;41.610;25.380;2022-12-18T14:08:41;99536.63;;;12.37;98.95
40850;BME280;26571;41.610;25.380;2022-12-18T14:11:19;99535.94;;;12.35;97.54
40850;BME280;26571;41.610;25.380;2022-12-18T14:13:46;99534.13;;;12.36;98.00
40850;BME280;26571;41.610;25.380;2022-12-18T14:16:14;99557.41;;;12.23;98.38